Time;durP1;ratioP1;P1;durP2;ratioP2;P2;SDS_P1;SDS_P2;PMS_P1;PMS_P2;Temp;Humidity;BMP_temperature;BMP_pressure;BME280_temperature;BME280_humidity;BME280_pressure;Samples;Min_cycle;Max_cycle;Signal;HPM_P1;HPM_P2
2021/12/16 00:02:10;;;;;;;26.88;11.57;;;8.20;99.90;;;;;;5067179;28;20040;-82
2021/12/16 00:05:18;;;;;;;22.65;11.23;;;8.20;99.90;;;;;;5043435;28;20071;-81
2021/12/16 00:07:43;;;;;;;21.67;10.02;;;8.20;99.90;;;;;;5076707;28;20049;-82
2021/12/16 00:10:35;;;;;;;27.70;10.45;;;8.20;99.90;;;;;;5082438;28;20087;-82
2021/12/16 00:32:34;;;;;;;24.13;11.30;;;8.20;99.90;;;;;;5083004;28;20055;-82
2021/12/16 00:35:00;;;;;;;26.88;10.85;;;8.10;99.90;;;;;;5083167;28;20487;-82
2021/12/16 00:37:27;;;;;;;23.40;11.00;;;8.10;99.90;;;;;;5083442;28;20450;-83
2021/12/16 00:39:53;;;;;;;31.70;12.60;;;8.10;99.90;;;;;;5085068;28;20040;-81
2021/12/16 00:42:49;;;;;;;26.23;10.95;;;8.10;99.90;;;;;;5079288;28;20043;-83
2021/12/16 00:45:27;;;;;;;25.95;11.07;;;8.10;99.90;;;;;;5081822;28;20076;-82
2021/12/16 00:47:59;;;;;;;32.17;13.05;;;8.10;99.90;;;;;;5078796;28;20068;-83
2021/12/16 00:55:49;;;;;;;33.28;13.63;;;8.10;99.90;;;;;;5082859;28;20085;-83
2021/12/16 00:58:22;;;;;;;27.63;12.13;;;8.10;99.90;;;;;;5082948;28;20124;-82
2021/12/16 01:00:56;;;;;;;26.52;13.07;;;8.10;99.90;;;;;;5082543;28;20052;-81
2021/12/16 01:03:33;;;;;;;33.75;13.20;;;8.00;99.90;;;;;;5084715;28;20045;-82
2021/12/16 01:36:40;;;;;;;28.58;14.10;;;8.20;99.90;;;;;;5083685;28;20076;-81
2021/12/16 01:55:06;;;;;;;25.67;12.90;;;8.20;99.90;;;;;;5078387;28;20060;-81
2021/12/16 01:57:41;;;;;;;26.63;12.75;;;8.20;99.90;;;;;;5082255;28;20035;-81
2021/12/16 02:00:28;;;;;;;26.17;12.82;;;8.20;99.90;;;;;;5080822;28;20040;-82
2021/12/16 02:03:01;;;;;;;;;;;8.20;99.90;;;;;;5082330;28;20463;-81
2021/12/16 02:06:00;;;;;;;36.15;14.85;;;8.20;99.90;;;;;;5080555;28;20294;-82
2021/12/16 02:08:32;;;;;;;28.60;13.25;;;8.20;99.90;;;;;;5081777;28;20044;-82
2021/12/16 02:11:22;;;;;;;34.47;12.52;;;8.20;99.90;;;;;;5078476;28;20060;-80
2021/12/16 02:28:30;;;;;;;28.17;12.98;;;8.20;99.90;;;;;;5060495;28;20056;-83
2021/12/16 02:33:49;;;;;;;25.67;12.52;;;8.50;99.90;;;;;;5058008;28;20056;-83
2021/12/16 02:36:39;;;;;;;32.25;14.23;;;8.20;99.90;;;;;;5061414;28;20048;-83
2021/12/16 02:39:19;;;;;;;34.53;14.68;;;8.20;99.90;;;;;;5060164;28;20044;-82
2021/12/16 02:41:48;;;;;;;37.67;13.55;;;8.20;99.90;;;;;;5060558;28;20033;-82
2021/12/16 02:44:32;;;;;;;39.13;14.38;;;8.20;99.90;;;;;;5060012;28;20037;-82
2021/12/16 02:49:47;;;;;;;35.53;13.95;;;8.20;99.90;;;;;;5058633;28;20060;-82
2021/12/16 02:52:14;;;;;;;27.05;12.80;;;8.20;99.90;;;;;;5057249;28;20115;-83
2021/12/16 02:54:40;;;;;;;27.98;13.35;;;8.20;99.90;;;;;;5057492;28;20130;-83
2021/12/16 02:57:06;;;;;;;32.80;14.05;;;8.20;99.90;;;;;;5057683;28;20053;-82
2021/12/16 02:59:33;;;;;;;28.52;13.48;;;8.20;99.90;;;;;;5060507;28;20048;-82
2021/12/16 03:02:06;;;;;;;28.58;14.23;;;8.20;99.90;;;;;;5062148;28;20204;-81
2021/12/16 03:04:34;;;;;;;27.35;13.05;;;8.20;99.90;;;;;;5059778;28;20289;-82
2021/12/16 03:07:00;;;;;;;35.88;14.15;;;8.20;99.90;;;;;;5056557;28;20087;-83
2021/12/16 03:14:57;;;;;;;29.13;13.73;;;8.10;99.90;;;;;;5062385;28;20055;-82
2021/12/16 03:17:39;;;;;;;32.17;13.13;;;8.00;99.90;;;;;;5062864;28;20144;-82
2021/12/16 03:20:17;;;;;;;30.30;13.75;;;8.00;99.90;;;;;;5059924;28;20096;-81
2021/12/16 03:25:24;;;;;;;25.50;13.63;;;8.00;99.90;;;;;;5060470;28;20045;-81
2021/12/16 03:33:45;;;;;;;37.67;14.20;;;8.00;99.90;;;;;;5055434;28;20534;-82
2021/12/16 03:36:06;;;;;;;32.08;15.57;;;7.90;99.90;;;;;;5058229;28;20109;-83
2021/12/16 03:38:37;;;;;;;33.60;13.95;;;7.90;99.90;;;;;;5063118;28;20048;-82
2021/12/16 03:41:05;;;;;;;29.55;14.93;;;7.80;99.90;;;;;;5055798;28;20180;-80
2021/12/16 03:43:32;;;;;;;32.47;15.18;;;7.70;99.90;;;;;;5060253;28;20087;-81
2021/12/16 03:48:48;;;;;;;34.55;13.95;;;7.60;99.90;;;;;;5061668;28;20049;-81
2021/12/16 03:51:16;;;;;;;39.00;17.25;;;7.50;99.90;;;;;;5044587;28;20074;-80
2021/12/16 03:53:44;;;;;;;42.92;16.75;;;7.40;99.90;;;;;;5063259;28;20616;-81
2021/12/16 03:56:11;;;;;;;37.15;16.23;;;7.30;99.90;;;;;;5063231;28;20109;-81
2021/12/16 03:58:38;;;;;;;36.03;17.90;;;7.20;99.90;;;;;;5063025;28;20040;-82
2021/12/16 04:01:09;;;;;;;42.67;17.58;;;7.10;99.90;;;;;;5061949;28;20049;-81
2021/12/16 04:03:35;;;;;;;43.95;17.45;;;7.00;99.90;;;;;;5063182;28;20060;-82
2021/12/16 04:06:01;;;;;;;46.85;19.15;;;7.00;99.90;;;;;;5065145;28;20044;-82
2021/12/16 04:08:27;;;;;;;45.65;19.13;;;6.80;99.90;;;;;;5065796;28;20052;-82
2021/12/16 04:11:04;;;;;;;52.63;18.92;;;6.80;99.90;;;;;;5065049;28;20048;-81
2021/12/16 04:13:31;;;;;;;52.50;18.98;;;6.70;99.90;;;;;;5064776;28;20041;-81
2021/12/16 04:15:57;;;;;;;56.35;21.23;;;6.70;99.90;;;;;;5065215;28;20045;-80
2021/12/16 04:18:23;;;;;;;;;;;6.60;99.90;;;;;;5063832;28;20095;-82
2021/12/16 04:20:48;;;;;;;53.97;19.20;;;6.60;99.90;;;;;;5064575;28;20100;-81
2021/12/16 04:23:15;;;;;;;54.13;20.95;;;6.50;99.90;;;;;;5062626;28;20189;-81
2021/12/16 04:25:42;;;;;;;;;;;6.50;99.90;;;;;;5063247;28;20344;-80
2021/12/16 04:28:14;;;;;;;45.78;19.83;;;6.50;99.90;;;;;;5063526;28;19925;-81
2021/12/16 04:30:40;;;;;;;51.95;21.70;;;6.40;99.90;;;;;;5059801;28;20094;-81
2021/12/16 04:33:06;;;;;;;59.10;21.85;;;6.30;99.90;;;;;;5044262;28;20053;-81
2021/12/16 04:35:33;;;;;;;58.33;23.60;;;6.30;99.90;;;;;;5043403;28;20064;-82
2021/12/16 04:38:00;;;;;;;71.50;26.60;;;6.20;99.90;;;;;;5043129;28;20076;-81
2021/12/16 04:40:27;;;;;;;77.68;24.38;;;6.20;99.90;;;;;;5044321;28;20146;-80
2021/12/16 04:42:59;;;;;;;69.32;24.70;;;6.20;99.90;;;;;;5044445;28;20042;-80
2021/12/16 04:45:25;;;;;;;87.32;27.48;;;6.20;99.90;;;;;;5041441;28;20041;-81
2021/12/16 04:47:52;;;;;;;72.03;24.38;;;6.20;99.90;;;;;;5041812;28;20496;-82
2021/12/16 04:50:18;;;;;;;;;;;7.00;99.90;;;;;;5042616;28;20057;-81
2021/12/16 04:52:44;;;;;;;71.40;26.80;;;6.30;99.90;;;;;;5042735;28;19925;-81
2021/12/16 04:55:11;;;;;;;;;;;6.30;99.90;;;;;;5041839;28;20116;-81
2021/12/16 04:57:37;;;;;;;73.65;26.13;;;6.20;99.90;;;;;;5041252;28;19971;-80
2021/12/16 05:00:07;;;;;;;85.30;26.50;;;6.20;99.90;;;;;;5042705;28;20049;-81
2021/12/16 05:02:33;;;;;;;73.30;25.90;;;6.20;99.90;;;;;;5043905;28;20053;-80
2021/12/16 05:04:59;;;;;;;87.30;30.17;;;6.20;99.90;;;;;;5043181;28;20075;-81
2021/12/16 05:07:25;;;;;;;99.63;30.27;;;6.30;99.90;;;;;;5043231;28;20049;-81
2021/12/16 05:12:20;;;;;;;79.22;29.48;;;6.20;99.90;;;;;;5040272;28;20064;-81
2021/12/16 05:14:50;;;;;;;93.55;31.20;;;6.10;99.90;;;;;;5039777;28;20514;-81
2021/12/16 05:17:51;;;;;;;86.43;30.45;;;6.40;99.90;;;;;;5042113;28;20034;-81
2021/12/16 05:20:11;;;;;;;95.40;31.52;;;6.10;99.90;;;;;;5037268;28;20068;-81
2021/12/16 05:25:47;;;;;;;93.90;30.95;;;6.30;99.90;;;;;;5043621;28;20053;-80
2021/12/16 05:28:15;;;;;;;84.88;31.10;;;6.30;99.90;;;;;;5043099;28;20147;-82
2021/12/16 05:30:41;;;;;;;90.75;33.20;;;6.50;99.90;;;;;;5041470;28;20113;-82
2021/12/16 05:33:07;;;;;;;83.90;28.70;;;6.50;99.90;;;;;;5040783;28;20089;-80
2021/12/16 05:35:33;;;;;;;89.25;31.73;;;6.50;99.90;;;;;;5043019;28;20487;-81
2021/12/16 05:37:59;;;;;;;92.20;31.65;;;6.60;99.90;;;;;;5042610;28;20065;-81
2021/12/16 05:40:27;;;;;;;97.43;32.03;;;6.60;99.90;;;;;;5043030;28;20053;-82
2021/12/16 05:42:56;;;;;;;84.25;29.63;;;6.60;99.90;;;;;;5042212;28;20057;-81
2021/12/16 05:45:23;;;;;;;86.63;30.77;;;6.70;99.90;;;;;;5043011;28;20347;-81
2021/12/16 05:47:51;;;;;;;75.63;30.15;;;6.70;99.90;;;;;;5040984;28;20049;-82
2021/12/16 05:50:18;;;;;;;78.28;30.73;;;6.70;99.90;;;;;;5041633;28;20092;-80
2021/12/16 05:52:44;;;;;;;82.85;30.15;;;6.70;99.90;;;;;;5040465;28;20061;-82
2021/12/16 05:55:13;;;;;;;79.30;31.58;;;6.80;99.90;;;;;;5039193;28;20052;-80
2021/12/16 05:57:41;;;;;;;78.60;29.27;;;6.80;99.90;;;;;;5041356;28;20057;-80
2021/12/16 06:00:14;;;;;;;79.15;29.40;;;6.80;99.90;;;;;;5041208;28;20045;-82
2021/12/16 06:02:40;;;;;;;65.90;27.50;;;6.80;99.90;;;;;;5041163;28;20045;-80
2021/12/16 06:05:07;;;;;;;61.72;24.52;;;6.80;99.90;;;;;;5038219;28;20136;-81
2021/12/16 06:07:33;;;;;;;69.47;27.08;;;6.80;99.90;;;;;;5023160;28;20045;-82
2021/12/16 06:09:59;;;;;;;67.13;27.40;;;6.80;99.90;;;;;;5040201;28;20071;-82
2021/12/16 06:12:30;;;;;;;67.35;26.08;;;6.80;99.90;;;;;;5040606;28;20073;-81
2021/12/16 06:28:20;;;;;;;69.70;26.83;;;6.70;99.90;;;;;;5037712;28;20060;-82
2021/12/16 06:30:46;;;;;;;65.90;24.83;;;6.60;99.90;;;;;;5038206;28;20406;-80
2021/12/16 06:33:15;;;;;;;71.97;24.92;;;6.50;99.90;;;;;;5039886;28;20056;-82
2021/12/16 06:35:42;;;;;;;81.43;27.23;;;6.40;99.90;;;;;;5039447;28;20072;-81
2021/12/16 06:38:07;;;;;;;77.38;25.88;;;6.30;99.90;;;;;;5039693;28;20131;-81
2021/12/16 06:40:33;;;;;;;88.57;29.17;;;6.30;99.90;;;;;;5040420;28;20049;-80
2021/12/16 06:43:01;;;;;;;88.18;28.38;;;6.30;99.90;;;;;;5039858;28;20041;-80
2021/12/16 06:45:35;;;;;;;80.68;27.23;;;6.20;99.90;;;;;;5037527;28;20053;-82
2021/12/16 06:48:05;;;;;;;100.72;27.75;;;6.20;99.90;;;;;;5038097;28;20193;-80
2021/12/16 06:53:08;;;;;;;95.65;29.73;;;6.10;99.90;;;;;;5037257;28;20111;-82
2021/12/16 06:55:42;;;;;;;92.60;27.63;;;6.00;99.90;;;;;;5037506;28;20064;-82
2021/12/16 06:58:19;;;;;;;87.28;28.60;;;5.90;99.90;;;;;;5037045;28;20058;-82
2021/12/16 07:00:50;;;;;;;109.05;32.03;;;5.90;99.90;;;;;;5037070;28;20126;-81
2021/12/16 07:03:22;;;;;;;98.47;30.15;;;5.80;99.90;;;;;;5021043;28;20068;-81
2021/12/16 07:05:58;;;;;;;96.18;31.00;;;5.70;99.90;;;;;;5022315;28;20050;-81
2021/12/16 07:08:27;;;;;;;105.10;30.08;;;5.70;99.90;;;;;;5040727;28;20209;-81
2021/12/16 07:10:55;;;;;;;115.57;31.90;;;5.60;99.90;;;;;;5055660;28;20045;-81
2021/12/16 07:13:37;;;;;;;117.22;31.60;;;5.60;99.90;;;;;;5057140;28;20445;-82
2021/12/16 07:16:04;;;;;;;102.30;32.78;;;5.60;99.90;;;;;;5060398;28;20099;-81
2021/12/16 07:18:30;;;;;;;101.95;33.17;;;5.60;99.90;;;;;;5061398;28;20057;-80
2021/12/16 07:21:14;;;;;;;114.68;35.55;;;5.70;99.90;;;;;;5066106;28;20049;-82
2021/12/16 07:23:39;;;;;;;135.38;36.55;;;5.70;99.90;;;;;;5064149;28;20041;-82
2021/12/16 07:26:05;;;;;;;113.93;33.90;;;5.60;99.90;;;;;;5063004;28;20041;-81
2021/12/16 07:28:31;;;;;;;126.20;33.85;;;5.50;99.90;;;;;;5065800;28;20105;-82
2021/12/16 07:30:57;;;;;;;116.80;33.47;;;5.50;99.90;;;;;;5066144;28;20072;-81
2021/12/16 07:33:23;;;;;;;129.52;35.15;;;5.40;99.90;;;;;;5062127;28;20053;-82
2021/12/16 07:35:51;;;;;;;135.82;34.63;;;5.40;99.90;;;;;;5056518;28;20088;-82
2021/12/16 07:38:17;;;;;;;141.77;36.10;;;5.30;99.90;;;;;;5058190;28;20037;-81
2021/12/16 07:40:44;;;;;;;;;;;5.30;99.90;;;;;;5057137;28;20049;-82
2021/12/16 07:43:19;;;;;;;135.85;34.55;;;5.20;99.90;;;;;;5048789;28;19932;-80
2021/12/16 07:45:48;;;;;;;136.70;36.50;;;5.20;99.90;;;;;;5057942;28;20072;-82
2021/12/16 07:48:15;;;;;;;152.05;37.50;;;5.20;99.90;;;;;;5054015;28;20060;-81
2021/12/16 07:50:44;;;;;;;147.15;35.97;;;5.20;99.90;;;;;;5051160;28;20045;-80
2021/12/16 07:53:10;;;;;;;143.10;36.10;;;5.10;99.90;;;;;;5055967;28;20406;-81
2021/12/16 07:55:36;;;;;;;168.68;38.60;;;5.10;99.90;;;;;;5060395;28;20049;-81
2021/12/16 07:58:03;;;;;;;135.40;38.83;;;5.10;99.90;;;;;;5060348;28;20068;-80
2021/12/16 08:00:33;;;;;;;170.10;39.05;;;5.10;99.90;;;;;;5061846;28;20067;-82
2021/12/16 08:03:04;;;;;;;146.98;38.35;;;5.20;99.90;;;;;;5066033;28;20055;-81
2021/12/16 08:05:33;;;;;;;157.70;40.40;;;5.20;99.90;;;;;;5062651;28;20041;-81
2021/12/16 08:07:59;;;;;;;156.15;39.85;;;5.30;99.90;;;;;;5044690;28;20045;-81
2021/12/16 08:10:25;;;;;;;;;;;5.40;99.90;;;;;;5063784;28;20174;-80
2021/12/16 08:12:52;;;;;;;159.48;39.03;;;5.50;99.90;;;;;;5061344;28;19921;-81
2021/12/16 08:15:18;;;;;;;171.40;42.65;;;5.60;99.90;;;;;;5054990;28;20045;-80
2021/12/16 08:17:44;;;;;;;159.30;42.88;;;5.70;99.90;;;;;;5053086;28;20049;-80
2021/12/16 08:20:11;;;;;;;179.93;45.33;;;5.80;99.90;;;;;;5057981;28;20087;-81
2021/12/16 08:22:39;;;;;;;166.77;44.22;;;5.90;99.90;;;;;;5058581;28;20049;-80
2021/12/16 08:25:05;;;;;;;190.05;47.75;;;6.00;99.90;;;;;;5056820;28;20551;-80
2021/12/16 08:27:33;;;;;;;163.88;44.42;;;6.00;99.90;;;;;;5050913;28;20041;-80
2021/12/16 08:29:59;;;;;;;165.10;46.50;;;6.10;99.90;;;;;;5049272;28;20041;-81
2021/12/16 08:32:25;;;;;;;178.10;47.72;;;6.20;99.90;;;;;;5045033;28;20049;-81
2021/12/16 08:34:51;;;;;;;173.10;47.45;;;6.20;99.90;;;;;;5040274;28;20057;-80
2021/12/16 08:37:17;;;;;;;184.80;46.38;;;6.30;99.90;;;;;;5042281;28;20063;-82
2021/12/16 08:39:44;;;;;;;162.90;45.22;;;6.40;99.90;;;;;;5044122;28;20112;-81
2021/12/16 08:42:11;;;;;;;173.57;45.22;;;6.50;99.90;;;;;;5043195;28;20120;-80
2021/12/16 08:44:37;;;;;;;186.27;47.45;;;6.60;99.90;;;;;;5043317;28;20040;-81
2021/12/16 08:47:07;;;;;;;195.45;52.15;;;6.70;99.90;;;;;;5043621;28;20045;-81
2021/12/16 08:49:34;;;;;;;192.63;50.83;;;6.80;99.90;;;;;;5045188;28;20044;-81
2021/12/16 08:52:04;;;;;;;176.15;49.30;;;6.90;99.90;;;;;;5048259;28;20029;-81
2021/12/16 08:54:31;;;;;;;180.82;50.55;;;7.00;99.90;;;;;;5058138;28;20052;-81
2021/12/16 08:56:57;;;;;;;164.38;48.15;;;7.00;99.90;;;;;;5056992;28;20033;-81
2021/12/16 08:59:24;;;;;;;194.70;49.97;;;7.10;99.90;;;;;;5057437;28;20055;-82
2021/12/16 09:01:53;;;;;;;188.57;49.90;;;7.10;99.90;;;;;;5059011;28;20044;-81
2021/12/16 09:04:23;;;;;;;193.25;49.72;;;7.10;99.90;;;;;;5057339;28;20083;-82
2021/12/16 09:06:51;;;;;;;187.20;50.17;;;7.10;99.90;;;;;;5054348;28;20064;-82
2021/12/16 09:09:17;;;;;;;192.32;50.47;;;7.10;99.90;;;;;;5052755;28;20045;-82
2021/12/16 09:12:05;;;;;;;197.07;49.90;;;7.10;99.90;;;;;;5047376;28;20604;-81
2021/12/16 09:14:31;;;;;;;;;;;7.10;99.90;;;;;;5049961;28;20052;-80
2021/12/16 09:16:58;;;;;;;199.85;49.65;;;7.20;99.90;;;;;;5041543;28;20450;-81
2021/12/16 09:19:23;;;;;;;220.25;51.00;;;7.10;99.90;;;;;;5038670;28;20798;-80
2021/12/16 09:21:49;;;;;;;248.90;54.13;;;7.10;99.90;;;;;;5038743;28;20068;-79
2021/12/16 09:24:15;;;;;;;230.40;53.20;;;7.20;99.90;;;;;;5038503;28;20061;-80
2021/12/16 09:26:43;;;;;;;208.00;51.30;;;7.20;99.90;;;;;;5039424;28;20049;-83
2021/12/16 09:29:10;;;;;;;264.13;51.05;;;7.20;99.90;;;;;;5037032;28;20208;-82
2021/12/16 09:31:36;;;;;;;234.95;53.72;;;7.20;99.90;;;;;;5037066;28;20040;-80
2021/12/16 09:34:06;;;;;;;;;;;7.30;99.90;;;;;;5035997;28;20496;-81
2021/12/16 09:36:33;;;;;;;245.55;52.28;;;7.30;99.90;;;;;;5034548;28;19967;-80
2021/12/16 09:38:59;;;;;;;254.25;54.40;;;7.40;99.90;;;;;;5034811;28;20105;-81
2021/12/16 09:41:26;;;;;;;;;;;7.50;99.90;;;;;;5034619;28;20105;-81
2021/12/16 09:43:53;;;;;;;;;;;7.50;99.90;;;;;;5037201;28;19924;-82
2021/12/16 09:46:22;;;;;;;212.88;46.88;;;7.60;99.90;;;;;;5036646;28;19983;-80
2021/12/16 09:48:48;;;;;;;225.57;45.75;;;7.70;99.90;;;;;;5034485;28;20128;-81
2021/12/16 09:51:21;;;;;;;260.80;52.05;;;7.90;99.90;;;;;;5035754;28;20093;-81
2021/12/16 09:53:48;;;;;;;254.57;51.72;;;7.90;99.90;;;;;;5037222;28;20176;-80
2021/12/16 09:56:14;;;;;;;237.73;52.25;;;8.10;99.90;;;;;;5041448;28;20053;-80
2021/12/16 09:58:44;;;;;;;341.27;57.83;;;8.00;99.90;;;;;;5035179;28;20130;-82
2021/12/16 10:01:11;;;;;;;297.17;52.25;;;8.00;99.90;;;;;;5050807;28;20033;-82
2021/12/16 10:03:40;;;;;;;314.38;53.33;;;8.00;99.90;;;;;;5044150;28;20045;-82
2021/12/16 10:06:06;;;;;;;337.75;55.45;;;7.90;99.90;;;;;;5051709;28;20539;-81
2021/12/16 10:08:32;;;;;;;340.05;54.45;;;7.90;99.90;;;;;;5049311;28;20042;-80
2021/12/16 10:10:58;;;;;;;441.33;61.88;;;7.90;99.90;;;;;;5055804;28;20049;-81
2021/12/16 10:13:31;;;;;;;;;;;7.90;99.90;;;;;;5056042;28;20041;-80
2021/12/16 10:18:28;;;;;;;194.10;37.53;;;8.00;99.90;;;;;;5056217;28;20067;-81
2021/12/16 10:20:57;;;;;;;273.30;45.83;;;8.00;99.90;;;;;;5055734;28;20073;-82
2021/12/16 10:23:33;;;;;;;318.42;49.97;;;8.00;99.90;;;;;;5055514;28;20060;-79
2021/12/16 10:26:13;;;;;;;395.77;56.57;;;8.10;99.90;;;;;;5054954;28;20504;-81
2021/12/16 10:28:43;;;;;;;280.25;44.17;;;8.10;99.90;;;;;;5056216;28;20092;-80
2021/12/16 10:31:12;;;;;;;415.38;56.28;;;8.10;99.90;;;;;;5055147;28;20049;-82
2021/12/16 10:33:51;;;;;;;361.55;51.97;;;8.20;99.90;;;;;;5055941;28;20530;-80
2021/12/16 10:36:16;;;;;;;258.17;40.33;;;8.30;99.90;;;;;;5055346;28;20057;-80
2021/12/16 10:38:50;;;;;;;230.38;39.03;;;8.30;99.90;;;;;;5055966;28;20071;-80
2021/12/16 10:41:34;;;;;;;309.55;41.97;;;8.40;99.90;;;;;;5056532;28;20049;-81
2021/12/16 10:44:14;;;;;;;260.20;39.95;;;8.40;99.90;;;;;;5055994;28;20488;-82
2021/12/16 10:46:49;;;;;;;293.77;39.83;;;8.40;99.90;;;;;;5046543;28;20056;-80
2021/12/16 10:49:21;;;;;;;406.63;52.85;;;8.40;99.90;;;;;;5035579;28;20049;-82
2021/12/16 10:51:51;;;;;;;242.88;36.00;;;8.40;99.90;;;;;;5040348;28;20049;-81
2021/12/16 10:54:17;;;;;;;404.40;48.50;;;8.40;99.90;;;;;;5038122;28;20041;-81
2021/12/16 10:57:31;;;;;;;228.73;33.42;;;8.40;99.90;;;;;;5038964;28;20057;-79
2021/12/16 11:00:10;;;;;;;305.73;43.45;;;8.40;99.90;;;;;;4995821;28;20090;-81
2021/12/16 11:02:38;;;;;;;214.90;36.33;;;8.40;99.90;;;;;;4979859;28;20184;-80
2021/12/16 11:05:14;;;;;;;300.13;42.55;;;8.60;99.90;;;;;;5020804;28;20053;-81
2021/12/16 11:07:47;;;;;;;358.45;46.53;;;8.60;99.90;;;;;;5037790;28;20595;-80
2021/12/16 11:10:15;;;;;;;335.90;44.40;;;8.60;99.90;;;;;;5037669;28;20053;-80
2021/12/16 11:12:56;;;;;;;361.80;48.47;;;8.60;99.90;;;;;;5038445;28;20079;-80
2021/12/16 11:15:29;;;;;;;381.67;47.97;;;8.70;99.90;;;;;;5036524;28;20437;-81
2021/12/16 11:18:20;;;;;;;189.38;30.25;;;8.70;99.90;;;;;;5038519;28;20045;-81
2021/12/16 11:20:59;;;;;;;253.73;39.05;;;8.80;99.90;;;;;;5038470;28;20057;-81
2021/12/16 11:23:37;;;;;;;178.82;33.03;;;8.80;99.90;;;;;;5038132;28;20045;-80
2021/12/16 11:26:28;;;;;;;226.07;36.28;;;8.80;99.90;;;;;;5037067;28;20393;-80
2021/12/16 11:28:55;;;;;;;93.63;26.58;;;8.80;99.90;;;;;;5031549;28;20061;-79
2021/12/16 11:31:32;;;;;;;125.32;29.48;;;8.80;99.90;;;;;;5036982;28;20045;-81
2021/12/16 11:34:00;;;;;;;;;;;8.80;99.90;;;;;;5038937;28;20064;-81
2021/12/16 11:36:28;;;;;;;225.52;38.00;;;8.80;99.90;;;;;;5038867;28;19945;-82
2021/12/16 11:38:59;;;;;;;191.25;32.92;;;8.80;99.90;;;;;;5036503;28;20053;-81
2021/12/16 11:41:26;;;;;;;125.13;29.30;;;8.80;99.90;;;;;;5039562;28;20099;-80
2021/12/16 11:44:07;;;;;;;215.32;35.65;;;8.90;99.90;;;;;;5037782;28;20053;-80
2021/12/16 11:46:38;;;;;;;147.95;30.85;;;8.80;99.90;;;;;;5037760;28;20187;-81
2021/12/16 11:49:33;;;;;;;184.80;35.00;;;8.90;99.90;;;;;;5036630;28;20064;-80
2021/12/16 11:52:15;;;;;;;168.02;31.42;;;8.90;99.90;;;;;;5038254;28;20042;-81
2021/12/16 11:54:42;;;;;;;110.85;27.92;;;8.90;99.90;;;;;;5038561;28;20057;-84
2021/12/16 11:57:31;;;;;;;159.88;32.80;;;8.90;99.90;;;;;;5036157;28;20057;-81
2021/12/16 12:00:06;;;;;;;143.75;29.63;;;9.00;99.90;;;;;;5037074;28;20057;-79
2021/12/16 12:02:35;;;;;;;138.55;29.05;;;9.00;99.90;;;;;;5037235;28;20057;-80
2021/12/16 12:05:25;;;;;;;175.27;34.70;;;8.90;99.90;;;;;;5037369;28;20061;-79
2021/12/16 12:07:54;;;;;;;123.50;29.40;;;8.90;99.90;;;;;;5039635;28;20053;-79
2021/12/16 12:10:48;;;;;;;131.90;30.15;;;8.90;99.90;;;;;;5039805;28;20057;-82
2021/12/16 12:13:22;;;;;;;124.45;31.23;;;8.90;99.90;;;;;;5038110;28;20049;-81
2021/12/16 12:15:59;;;;;;;106.78;27.58;;;8.90;99.90;;;;;;5038024;28;20061;-81
2021/12/16 12:18:38;;;;;;;106.07;28.98;;;8.90;99.90;;;;;;5036952;28;20064;-80
2021/12/16 12:21:21;;;;;;;98.70;27.90;;;8.90;99.90;;;;;;5037546;28;20064;-80
2021/12/16 12:23:49;;;;;;;91.00;26.50;;;8.90;99.90;;;;;;5034659;28;20432;-80
2021/12/16 12:26:16;;;;;;;82.97;25.90;;;8.90;99.90;;;;;;5035377;28;20057;-80
2021/12/16 12:28:48;;;;;;;76.97;25.13;;;8.90;99.90;;;;;;5037046;28;20055;-81
2021/12/16 12:31:16;;;;;;;77.32;26.77;;;8.90;99.90;;;;;;5035171;28;20073;-80
2021/12/16 12:33:42;;;;;;;68.40;24.33;;;9.00;99.90;;;;;;5037321;28;20085;-80
2021/12/16 12:36:08;;;;;;;;;;;8.90;99.90;;;;;;5036741;28;20045;-81
2021/12/16 12:38:36;;;;;;;67.13;23.40;;;9.00;99.90;;;;;;5035860;28;19936;-81
2021/12/16 12:41:03;;;;;;;65.50;24.15;;;9.00;99.90;;;;;;5039839;28;20060;-81
2021/12/16 12:43:29;;;;;;;58.67;22.88;;;9.00;99.90;;;;;;5038424;28;20064;-80
2021/12/16 12:45:55;;;;;;;61.92;24.30;;;9.00;99.90;;;;;;5039463;28;20115;-80
2021/12/16 12:48:21;;;;;;;53.75;21.85;;;9.10;99.90;;;;;;5037855;28;20058;-81
2021/12/16 12:50:50;;;;;;;58.00;23.17;;;9.00;99.90;;;;;;5036005;28;20056;-80
2021/12/16 12:53:18;;;;;;;58.17;21.90;;;9.00;99.90;;;;;;5037471;28;20064;-80
2021/12/16 12:55:44;;;;;;;51.10;21.90;;;9.00;99.90;;;;;;5039919;28;20536;-81
2021/12/16 12:58:11;;;;;;;;;;;9.10;99.90;;;;;;5044698;28;20081;-80
2021/12/16 13:01:03;;;;;;;45.80;18.95;;;9.10;99.90;;;;;;5046229;28;19921;-81
2021/12/16 13:03:33;;;;;;;42.47;18.85;;;9.20;99.90;;;;;;5038992;28;20048;-81
2021/12/16 13:06:01;;;;;;;44.22;19.42;;;9.20;99.90;;;;;;5035420;28;20053;-82
2021/12/16 13:08:32;;;;;;;46.53;19.50;;;9.20;99.90;;;;;;5035288;28;20092;-81
2021/12/16 13:11:03;;;;;;;48.95;19.70;;;9.20;99.90;;;;;;5035294;28;20049;-79
2021/12/16 13:13:34;;;;;;;48.60;18.98;;;9.20;99.90;;;;;;5033533;28;20058;-80
2021/12/16 13:16:35;;;;;;;48.28;20.35;;;9.20;99.90;;;;;;5033590;28;20093;-81
2021/12/16 13:25:48;;;;;;;54.75;18.70;;;9.20;99.90;;;;;;5034179;28;20069;-80
2021/12/16 13:28:03;;;;;;;69.13;20.70;;;9.20;99.90;;;;;;5034011;28;20061;-79
2021/12/16 13:30:35;;;;;;;58.10;19.25;;;9.20;99.90;;;;;;5036557;28;20140;-81
2021/12/16 13:33:25;;;;;;;61.35;21.60;;;9.20;99.90;;;;;;5035192;28;20081;-80
2021/12/16 13:36:07;;;;;;;70.88;22.90;;;9.20;99.90;;;;;;5036566;28;20068;-80
2021/12/16 13:38:43;;;;;;;67.22;20.83;;;9.20;99.90;;;;;;5036653;28;20045;-81
2021/12/16 13:41:16;;;;;;;65.25;19.90;;;9.10;99.90;;;;;;5037311;28;20068;-81
2021/12/16 13:44:04;;;;;;;65.38;18.48;;;9.20;99.90;;;;;;5037426;28;20041;-79
2021/12/16 13:47:03;;;;;;;74.32;20.40;;;9.20;99.90;;;;;;5037364;28;20045;-79
2021/12/16 13:58:31;;;;;;;69.00;19.10;;;9.20;99.90;;;;;;5035780;28;20061;-79
2021/12/16 14:01:32;;;;;;;78.28;20.02;;;9.20;99.90;;;;;;5035445;28;20105;-80
2021/12/16 14:06:38;;;;;;;81.50;22.25;;;9.20;99.90;;;;;;5034489;28;20124;-80
2021/12/16 14:09:20;;;;;;;76.38;19.77;;;9.30;99.90;;;;;;5034587;28;20045;-81
2021/12/16 14:23:29;;;;;;;50.88;14.95;;;9.20;99.90;;;;;;5035497;28;20160;-80
2021/12/16 14:26:34;;;;;;;43.95;15.13;;;9.20;99.90;;;;;;5036492;28;20096;-80
2021/12/16 14:32:57;;;;;;;41.90;14.80;;;9.10;99.90;;;;;;5035586;28;20105;-80
2021/12/16 14:37:31;;;;;;;57.70;14.68;;;9.00;99.90;;;;;;5035840;28;20368;-79
2021/12/16 14:50:46;;;;;;;74.40;19.20;;;8.90;99.90;;;;;;5036227;28;20057;-80
2021/12/16 14:53:23;;;;;;;69.70;17.83;;;8.90;99.90;;;;;;5036562;28;20072;-80
2021/12/16 14:55:51;;;;;;;102.15;20.40;;;8.90;99.90;;;;;;5035412;28;20125;-80
2021/12/16 14:58:20;;;;;;;86.32;19.88;;;8.90;99.90;;;;;;5035142;28;20080;-80
2021/12/16 15:00:52;;;;;;;115.93;21.73;;;8.80;99.90;;;;;;5036003;28;20060;-79
2021/12/16 15:03:26;;;;;;;124.70;24.42;;;8.80;99.90;;;;;;5034826;28;20042;-81
2021/12/16 15:05:59;;;;;;;107.10;23.50;;;8.80;99.90;;;;;;5035561;28;20540;-81
2021/12/16 15:08:47;;;;;;;102.45;21.85;;;8.70;99.90;;;;;;5040154;28;20053;-80
2021/12/16 15:11:18;;;;;;;120.90;25.48;;;8.70;99.90;;;;;;5038881;28;20057;-80
2021/12/16 15:13:53;;;;;;;117.18;26.17;;;8.70;99.90;;;;;;5039796;28;20103;-81
2021/12/16 15:38:13;;;;;;;85.68;21.10;;;8.30;99.90;;;;;;5033199;28;20574;-79
2021/12/16 15:43:22;;;;;;;94.88;22.17;;;8.30;99.90;;;;;;5035211;28;20075;-79
2021/12/16 15:45:50;;;;;;;78.53;21.45;;;8.30;99.90;;;;;;5037539;28;20088;-79
2021/12/16 15:48:20;;;;;;;107.10;23.50;;;8.30;99.90;;;;;;5039618;28;20099;-80
2021/12/16 15:50:51;;;;;;;102.15;22.88;;;8.30;99.90;;;;;;5037479;28;20415;-80
2021/12/16 15:53:20;;;;;;;99.13;22.80;;;8.20;99.90;;;;;;5036403;28;20124;-80
2021/12/16 15:55:50;;;;;;;101.97;22.25;;;8.20;99.90;;;;;;5034321;28;20037;-81
2021/12/16 15:58:22;;;;;;;91.95;22.40;;;8.20;99.90;;;;;;5034377;28;20049;-80
2021/12/16 16:00:52;;;;;;;111.60;23.63;;;8.20;99.90;;;;;;5038591;28;20057;-80
2021/12/16 16:03:19;;;;;;;92.20;23.20;;;8.20;99.90;;;;;;5037263;28;20092;-80
2021/12/16 16:05:48;;;;;;;113.95;23.48;;;8.20;99.90;;;;;;5040604;28;20060;-81
2021/12/16 16:08:16;;;;;;;118.43;23.92;;;8.20;99.90;;;;;;5040764;28;20050;-79
2021/12/16 16:10:43;;;;;;;113.60;22.77;;;8.10;99.90;;;;;;5031826;28;20087;-79
2021/12/16 16:13:22;;;;;;;125.13;24.42;;;8.10;99.90;;;;;;5033469;28;20053;-81
2021/12/16 16:15:54;;;;;;;124.70;23.67;;;8.10;99.90;;;;;;5032675;28;20542;-81
2021/12/16 16:18:34;;;;;;;89.65;21.25;;;8.10;99.90;;;;;;5032630;28;20057;-80
2021/12/16 16:21:23;;;;;;;117.45;23.15;;;8.20;99.90;;;;;;5034203;28;20068;-80
2021/12/16 16:23:53;;;;;;;91.35;22.50;;;8.10;99.90;;;;;;5034789;28;20065;-80